createdAt,value
2018-02-26T00:00:26.183Z,13.07
2018-02-26T00:02:53.855Z,12.50
2018-02-26T00:05:21.532Z,11.67
2018-02-26T00:07:49.989Z,11.90
2018-02-26T00:10:18.660Z,12.07
2018-02-26T00:12:46.331Z,11.13
2018-02-26T00:15:14.045Z,10.60
2018-02-26T00:17:41.708Z,10.60
2018-02-26T00:20:09.378Z,10.10
2018-02-26T00:22:42.090Z,11.20
2018-02-26T00:25:09.777Z,11.57
2018-02-26T00:27:38.197Z,11.10
2018-02-26T00:30:05.924Z,10.73
2018-02-26T00:32:34.554Z,11.43
2018-02-26T00:35:03.175Z,11.30
2018-02-26T00:37:30.889Z,11.40
2018-02-26T00:39:58.614Z,11.60
2018-02-26T00:42:26.456Z,12.23
2018-02-26T00:44:54.794Z,12.83
2018-02-26T00:47:22.467Z,17.97
2018-02-26T00:49:50.190Z,25.20
2018-02-26T00:52:17.971Z,16.50
2018-02-26T00:54:46.622Z,15.37
2018-02-26T00:57:14.367Z,14.53
2018-02-26T00:59:42.045Z,15.03
2018-02-26T01:02:09.715Z,14.47
2018-02-26T01:04:37.408Z,14.37
2018-02-26T01:07:05.864Z,14.47
2018-02-26T01:09:33.840Z,13.20
2018-02-26T01:12:01.648Z,13.63
2018-02-26T01:14:29.460Z,13.00
2018-02-26T01:16:57.269Z,12.77
2018-02-26T01:19:25.697Z,12.57
2018-02-26T01:21:53.369Z,13.07
2018-02-26T01:24:20.950Z,12.83
2018-02-26T01:26:48.693Z,13.47
2018-02-26T01:29:16.347Z,12.57
2018-02-26T01:31:44.020Z,15.73
2018-02-26T01:34:11.719Z,15.57
2018-02-26T01:36:39.459Z,33.77
2018-02-26T01:39:07.229Z,12.93
2018-02-26T01:41:34.887Z,11.83
2018-02-26T01:44:02.683Z,12.83
2018-02-26T01:46:30.361Z,11.43
2018-02-26T01:48:58.141Z,11.37
2018-02-26T01:51:25.982Z,11.30
2018-02-26T01:53:53.595Z,10.80
2018-02-26T01:56:21.670Z,11.33
2018-02-26T01:58:49.331Z,11.43
2018-02-26T02:01:16.992Z,10.70
2018-02-26T02:03:44.655Z,10.27
2018-02-26T02:06:12.505Z,10.40
2018-02-26T02:08:40.146Z,11.10
2018-02-26T02:11:07.777Z,10.63
2018-02-26T02:13:35.443Z,11.00
2018-02-26T02:16:03.125Z,10.57
2018-02-26T02:18:30.721Z,10.47
2018-02-26T02:20:58.420Z,10.43
2018-02-26T02:23:26.081Z,9.47
2018-02-26T02:25:53.735Z,10.17
2018-02-26T02:28:21.394Z,11.80
2018-02-26T02:30:49.042Z,10.67
2018-02-26T02:33:16.733Z,10.70
2018-02-26T02:35:44.453Z,9.83
2018-02-26T02:38:12.100Z,9.47
2018-02-26T02:40:40.554Z,9.57
2018-02-26T02:43:08.205Z,9.53
2018-02-26T02:45:35.877Z,9.13
2018-02-26T02:48:03.558Z,8.70
2018-02-26T02:50:32.014Z,9.00
2018-02-26T02:52:59.680Z,8.10
2018-02-26T02:55:28.436Z,9.07
2018-02-26T02:57:56.103Z,9.17
2018-02-26T03:00:23.757Z,8.93
2018-02-26T03:02:51.400Z,9.00
2018-02-26T03:05:19.208Z,8.27
2018-02-26T03:07:46.890Z,8.63
2018-02-26T03:10:14.536Z,8.60
2018-02-26T03:12:42.193Z,8.57
2018-02-26T03:15:09.877Z,7.80
2018-02-26T03:17:37.541Z,7.77
2018-02-26T03:20:05.202Z,7.67
2018-02-26T03:22:32.779Z,7.53
2018-02-26T03:25:01.212Z,7.73
2018-02-26T03:27:28.894Z,7.33
2018-02-26T03:29:56.568Z,7.60
2018-02-26T03:32:24.221Z,7.30
2018-02-26T03:34:52.077Z,7.03
2018-02-26T03:37:20.802Z,6.83
2018-02-26T03:39:49.020Z,6.93
2018-02-26T03:42:16.774Z,6.80
2018-02-26T03:44:44.471Z,6.83
2018-02-26T03:47:12.148Z,6.60
2018-02-26T03:49:39.838Z,6.53
2018-02-26T03:52:07.504Z,7.17
2018-02-26T03:54:35.165Z,6.53
2018-02-26T03:57:02.843Z,6.77
2018-02-26T03:59:31.271Z,6.20
2018-02-26T04:01:58.922Z,6.77
2018-02-26T04:04:27.320Z,6.73
2018-02-26T04:06:55.024Z,6.70
2018-02-26T04:09:22.693Z,6.13
2018-02-26T04:11:50.328Z,6.67
2018-02-26T04:14:17.988Z,6.20
2018-02-26T04:16:45.649Z,6.63
2018-02-26T04:19:13.299Z,6.50
2018-02-26T04:21:40.948Z,6.33
2018-02-26T04:24:08.654Z,6.33
2018-02-26T04:26:36.325Z,6.13
2018-02-26T04:29:04.718Z,6.50
2018-02-26T04:31:32.385Z,6.47
2018-02-26T04:34:00.040Z,6.50
2018-02-26T04:36:28.707Z,6.87
2018-02-26T04:38:56.807Z,6.53
2018-02-26T04:41:24.532Z,5.90
2018-02-26T04:43:52.200Z,6.40
2018-02-26T04:46:19.856Z,6.43
2018-02-26T04:48:48.040Z,6.03
2018-02-26T04:51:15.660Z,5.97
2018-02-26T04:53:43.310Z,6.20
2018-02-26T04:56:11.431Z,6.00
2018-02-26T04:58:39.494Z,5.90
2018-02-26T05:01:07.188Z,5.43
2018-02-26T05:03:35.606Z,5.57
2018-02-26T05:06:03.268Z,5.40
2018-02-26T05:08:30.945Z,8.10
2018-02-26T05:10:58.619Z,7.47
2018-02-26T05:13:26.256Z,5.37
2018-02-26T05:15:53.942Z,28.80
2018-02-26T05:18:22.462Z,14.83
2018-02-26T05:20:50.583Z,5.13
2018-02-26T05:23:18.399Z,5.07
2018-02-26T05:25:46.502Z,5.40
2018-02-26T05:28:14.143Z,7.50
2018-02-26T05:30:42.565Z,5.63
2018-02-26T05:33:10.209Z,5.63
2018-02-26T05:35:38.262Z,5.77
2018-02-26T05:38:06.745Z,5.43
2018-02-26T05:40:36.136Z,6.00
2018-02-26T05:43:03.845Z,5.90
2018-02-26T05:45:31.489Z,5.93
2018-02-26T05:47:59.908Z,6.33
2018-02-26T05:50:27.530Z,5.83
2018-02-26T05:52:55.940Z,5.30
2018-02-26T05:55:25.190Z,5.70
2018-02-26T05:57:52.773Z,6.00
2018-02-26T06:00:20.386Z,5.90
2018-02-26T06:02:48.050Z,5.77
2018-02-26T06:05:15.956Z,6.30
2018-02-26T06:07:43.624Z,6.03
2018-02-26T06:10:12.070Z,6.13
2018-02-26T06:12:39.731Z,6.20
2018-02-26T06:15:07.387Z,6.07
2018-02-26T06:17:35.039Z,6.13
2018-02-26T06:20:02.664Z,7.03
2018-02-26T06:22:30.321Z,6.70
2018-02-26T06:24:59.787Z,6.73
2018-02-26T06:27:27.448Z,6.80
2018-02-26T06:29:55.099Z,6.17
2018-02-26T06:32:22.766Z,6.47
2018-02-26T06:34:50.422Z,7.17
2018-02-26T06:37:18.104Z,6.40
2018-02-26T06:39:45.767Z,6.10
2018-02-26T06:42:13.411Z,7.67
2018-02-26T06:44:41.095Z,7.30
2018-02-26T06:47:08.769Z,7.10
2018-02-26T06:49:36.411Z,6.43
2018-02-26T06:52:04.071Z,6.07
2018-02-26T06:54:31.815Z,7.13
2018-02-26T06:56:59.462Z,7.40
2018-02-26T06:59:27.121Z,7.27
2018-02-26T07:01:54.806Z,6.93
2018-02-26T07:04:22.455Z,6.90
2018-02-26T07:06:50.109Z,6.77
2018-02-26T07:09:17.783Z,6.93
2018-02-26T07:11:45.455Z,6.90
2018-02-26T07:14:13.096Z,6.57
2018-02-26T07:16:41.144Z,6.37
2018-02-26T07:19:08.784Z,6.23
2018-02-26T07:21:36.487Z,7.80
2018-02-26T07:24:04.171Z,6.73
2018-02-26T07:26:31.815Z,6.57
2018-02-26T07:29:00.254Z,8.20
2018-02-26T07:31:27.924Z,8.63
2018-02-26T07:33:55.597Z,9.03
2018-02-26T07:36:23.259Z,7.77
2018-02-26T07:38:50.896Z,8.73
2018-02-26T07:41:18.567Z,8.87
2018-02-26T07:43:46.196Z,9.50
2018-02-26T07:46:13.993Z,10.40
2018-02-26T07:48:41.667Z,12.67
2018-02-26T07:51:09.301Z,9.87
2018-02-26T07:53:36.975Z,8.67
2018-02-26T07:56:04.632Z,10.43
2018-02-26T07:58:32.295Z,11.27
2018-02-26T08:01:05.374Z,9.37
2018-02-26T08:03:33.757Z,9.43
2018-02-26T08:06:01.438Z,9.13
2018-02-26T08:08:29.079Z,8.40
2018-02-26T08:10:57.343Z,8.63
2018-02-26T08:13:25.060Z,9.03
2018-02-26T08:15:52.732Z,9.80
2018-02-26T08:18:20.383Z,9.60
2018-02-26T08:20:48.120Z,10.53
2018-02-26T08:23:15.869Z,10.17
2018-02-26T08:25:43.463Z,9.80
2018-02-26T08:28:11.111Z,9.67
2018-02-26T08:30:38.776Z,9.97
2018-02-26T08:33:06.433Z,10.07
2018-02-26T08:35:34.203Z,17.83
2018-02-26T08:38:01.841Z,9.80
2018-02-26T08:40:29.812Z,10.13
2018-02-26T08:42:57.550Z,9.13
2018-02-26T08:45:25.968Z,12.03
2018-02-26T08:47:53.631Z,10.30
2018-02-26T08:50:21.279Z,6.83
2018-02-26T08:52:48.929Z,8.03
2018-02-26T08:55:16.576Z,7.40
2018-02-26T08:57:45.001Z,19.40
2018-02-26T09:00:12.646Z,6.23
2018-02-26T09:02:40.222Z,6.60
2018-02-26T09:05:07.966Z,5.87
2018-02-26T09:07:43.448Z,5.83
2018-02-26T09:10:17.674Z,6.23
2018-02-26T09:12:52.057Z,7.00
2018-02-26T09:15:25.310Z,6.53
2018-02-26T09:17:52.992Z,7.77
2018-02-26T09:20:20.668Z,8.10
2018-02-26T09:22:49.108Z,10.00
2018-02-26T09:25:16.774Z,10.43
2018-02-26T09:27:44.443Z,11.37
2018-02-26T09:30:12.115Z,10.93
2018-02-26T09:32:39.768Z,12.00
2018-02-26T09:35:07.597Z,12.27
2018-02-26T09:37:35.181Z,12.57
2018-02-26T09:40:02.818Z,12.23
2018-02-26T09:42:30.481Z,13.00
2018-02-26T09:44:58.458Z,12.63
2018-02-26T09:47:26.197Z,13.47
2018-02-26T09:49:59.739Z,13.50
2018-02-26T09:52:27.317Z,11.43
2018-02-26T09:54:54.918Z,10.33
2018-02-26T09:57:22.590Z,10.17
2018-02-26T09:59:50.267Z,10.10
2018-02-26T10:02:18.902Z,8.63
2018-02-26T10:04:46.572Z,7.43
2018-02-26T10:07:14.244Z,8.20
2018-02-26T10:09:41.925Z,7.27
2018-02-26T10:12:10.497Z,7.37
2018-02-26T10:14:38.319Z,7.27
2018-02-26T10:17:06.509Z,6.20
2018-02-26T10:19:34.273Z,7.03
2018-02-26T10:22:02.131Z,6.77
2018-02-26T10:24:29.956Z,6.23
2018-02-26T10:26:58.661Z,6.47
2018-02-26T10:29:26.996Z,7.00
2018-02-26T10:31:56.019Z,6.13
2018-02-26T10:34:23.847Z,6.00
2018-02-26T10:36:51.524Z,6.03
2018-02-26T10:39:20.544Z,5.63
2018-02-26T10:41:49.150Z,5.17
2018-02-26T10:44:16.919Z,4.57
2018-02-26T10:46:44.619Z,5.67
2018-02-26T10:49:12.283Z,5.47
2018-02-26T10:51:39.950Z,4.70
2018-02-26T10:54:08.330Z,4.93
2018-02-26T10:56:36.005Z,4.90
2018-02-26T10:59:03.691Z,4.60
2018-02-26T11:01:31.409Z,4.50
2018-02-26T11:03:59.080Z,4.50
2018-02-26T11:06:27.529Z,4.20
2018-02-26T11:08:57.606Z,4.00
2018-02-26T11:11:25.964Z,4.03
2018-02-26T11:13:53.954Z,3.90
2018-02-26T11:16:22.974Z,4.20
2018-02-26T11:18:50.644Z,3.87
2018-02-26T11:21:18.861Z,3.00
2018-02-26T11:23:46.688Z,4.63
2018-02-26T11:26:14.899Z,7.37
2018-02-26T11:28:42.567Z,4.30
2018-02-26T11:31:10.447Z,3.80
2018-02-26T11:33:38.948Z,6.27
2018-02-26T11:36:07.365Z,12.50
2018-02-26T11:38:34.980Z,2.73
2018-02-26T11:41:02.672Z,2.70
2018-02-26T11:43:30.345Z,3.10
2018-02-26T11:45:58.259Z,2.63
2018-02-26T11:48:25.940Z,2.67
2018-02-26T11:50:54.370Z,3.07
2018-02-26T11:53:22.808Z,3.80
2018-02-26T11:55:51.883Z,3.10
2018-02-26T11:58:19.670Z,3.00
2018-02-26T12:00:48.095Z,2.60
2018-02-26T12:03:17.099Z,3.50
2018-02-26T12:05:44.764Z,2.53
2018-02-26T12:08:12.655Z,2.73
2018-02-26T12:10:40.257Z,3.07
2018-02-26T12:13:07.916Z,2.70
2018-02-26T12:15:37.572Z,4.13
2018-02-26T12:18:05.262Z,11.53
2018-02-26T12:20:32.895Z,4.20
2018-02-26T12:23:00.557Z,4.17
2018-02-26T12:25:28.144Z,2.90
2018-02-26T12:27:55.793Z,3.30
2018-02-26T12:30:23.426Z,3.00
2018-02-26T12:32:51.095Z,3.00
2018-02-26T12:35:18.752Z,3.87
2018-02-26T12:37:46.421Z,10.97
2018-02-26T12:40:14.113Z,4.90
2018-02-26T12:42:41.881Z,3.73
2018-02-26T12:45:10.896Z,2.53
2018-02-26T12:47:38.552Z,2.00
2018-02-26T12:50:06.258Z,1.77
2018-02-26T12:52:36.633Z,6.50
2018-02-26T12:55:04.287Z,2.40
2018-02-26T12:57:31.963Z,2.17
2018-02-26T12:59:59.627Z,2.40
2018-02-26T13:02:27.280Z,2.70
2018-02-26T13:04:54.911Z,2.30
2018-02-26T13:07:22.584Z,2.37
2018-02-26T13:09:50.186Z,2.40
2018-02-26T13:12:18.548Z,2.53
2018-02-26T13:14:46.312Z,3.03
2018-02-26T13:17:13.995Z,2.93
2018-02-26T13:19:41.633Z,2.70
2018-02-26T13:22:09.266Z,2.60
2018-02-26T13:24:36.928Z,2.73
2018-02-26T13:27:04.622Z,4.47
2018-02-26T13:29:32.263Z,3.00
2018-02-26T13:31:59.896Z,2.57
2018-02-26T13:34:27.566Z,2.67
2018-02-26T13:36:55.202Z,2.50
2018-02-26T13:39:22.860Z,2.70
2018-02-26T13:41:50.505Z,3.23
2018-02-26T13:44:18.308Z,5.67
2018-02-26T13:46:45.977Z,3.00
2018-02-26T13:49:13.648Z,2.97
2018-02-26T13:51:41.347Z,2.67
2018-02-26T13:54:09.022Z,3.00
2018-02-26T13:56:36.708Z,3.50
2018-02-26T13:59:05.760Z,3.70
2018-02-26T14:01:35.943Z,3.63
2018-02-26T14:04:03.602Z,2.80
2018-02-26T14:06:31.244Z,3.13
2018-02-26T14:08:58.852Z,3.10
2018-02-26T14:11:26.459Z,4.50
2018-02-26T14:13:54.042Z,3.70
2018-02-26T14:16:24.745Z,3.73
2018-02-26T14:18:58.024Z,3.73
2018-02-26T14:21:25.691Z,3.07
2018-02-26T14:23:53.355Z,3.50
2018-02-26T14:26:23.231Z,3.60
2018-02-26T14:28:50.903Z,3.37
2018-02-26T14:31:18.553Z,3.43
2018-02-26T14:33:46.259Z,4.40
2018-02-26T14:36:14.044Z,5.57
2018-02-26T14:38:41.698Z,3.40
2018-02-26T14:41:09.644Z,4.07
2018-02-26T14:43:37.699Z,3.30
2018-02-26T14:46:05.694Z,3.90
2018-02-26T14:48:33.839Z,3.67
2018-02-26T14:51:01.766Z,3.60
2018-02-26T14:53:30.150Z,3.37
2018-02-26T14:55:58.877Z,3.77
2018-02-26T14:58:26.504Z,3.70
2018-02-26T15:00:54.187Z,5.50
2018-02-26T15:03:22.604Z,3.90
2018-02-26T15:05:50.253Z,4.83
2018-02-26T15:08:17.941Z,4.07
2018-02-26T15:10:45.631Z,3.10
2018-02-26T15:13:13.268Z,3.77
2018-02-26T15:15:40.925Z,3.70
2018-02-26T15:18:09.366Z,3.40
2018-02-26T15:20:37.820Z,4.23
2018-02-26T15:23:05.724Z,2.90
2018-02-26T15:25:33.631Z,2.93
2018-02-26T15:28:01.268Z,3.27
2018-02-26T15:30:28.913Z,3.43
2018-02-26T15:32:56.773Z,4.60
2018-02-26T15:35:24.405Z,5.47
2018-02-26T15:37:52.335Z,3.30
2018-02-26T15:40:21.934Z,11.67
2018-02-26T15:42:49.584Z,2.87
2018-02-26T15:45:17.413Z,4.27
2018-02-26T15:47:45.077Z,3.30
2018-02-26T15:50:12.788Z,2.17
2018-02-26T15:52:40.457Z,2.40
2018-02-26T15:55:10.138Z,2.67
2018-02-26T15:57:38.569Z,3.27
2018-02-26T16:00:06.237Z,2.80
2018-02-26T16:02:33.884Z,2.97
2018-02-26T16:05:01.549Z,3.10
2018-02-26T16:07:29.210Z,4.30
2018-02-26T16:09:57.696Z,9.20
2018-02-26T16:12:25.410Z,4.63
2018-02-26T16:14:53.857Z,3.60
2018-02-26T16:17:21.516Z,3.60
2018-02-26T16:19:50.205Z,6.27
2018-02-26T16:22:18.734Z,3.60
2018-02-26T16:24:47.720Z,3.50
2018-02-26T16:27:15.444Z,3.77
2018-02-26T16:29:43.113Z,3.77
2018-02-26T16:32:10.762Z,4.73
2018-02-26T16:34:38.399Z,4.27
2018-02-26T16:37:06.041Z,3.80
2018-02-26T16:39:34.458Z,4.50
2018-02-26T16:42:02.103Z,4.20
2018-02-26T16:44:29.770Z,7.97
2018-02-26T16:46:57.441Z,5.15
2018-02-26T16:49:25.102Z,4.83
2018-02-26T16:51:52.741Z,4.70
2018-02-26T16:54:21.180Z,3.87
2018-02-26T16:56:48.843Z,5.60
2018-02-26T16:59:16.509Z,4.50
2018-02-26T17:01:44.175Z,3.50
2018-02-26T17:04:11.826Z,3.97
2018-02-26T17:06:39.489Z,3.77
2018-02-26T17:09:07.153Z,3.83
2018-02-26T17:11:34.816Z,4.50
2018-02-26T17:14:02.477Z,5.20
2018-02-26T17:16:31.341Z,3.87
2018-02-26T17:18:58.996Z,4.53
2018-02-26T17:21:26.625Z,4.80
2018-02-26T17:23:54.309Z,9.53
2018-02-26T17:26:22.725Z,4.13
2018-02-26T17:28:50.383Z,4.50
2018-02-26T17:31:18.050Z,4.50
2018-02-26T17:33:45.722Z,5.23
2018-02-26T17:36:13.301Z,3.83
2018-02-26T17:38:40.876Z,5.23
2018-02-26T17:41:08.473Z,12.63
2018-02-26T17:43:36.058Z,4.00
2018-02-26T17:46:03.918Z,4.17
2018-02-26T17:48:31.614Z,4.77
2018-02-26T17:50:59.287Z,4.43
2018-02-26T17:53:26.951Z,3.50
2018-02-26T17:55:55.320Z,3.90
2018-02-26T17:58:25.068Z,6.23
2018-02-26T18:00:53.320Z,3.80
2018-02-26T18:03:20.981Z,3.97
2018-02-26T18:05:51.022Z,3.87
2018-02-26T18:08:19.179Z,6.03
2018-02-26T18:10:47.276Z,3.50
2018-02-26T18:13:15.981Z,3.50
2018-02-26T18:15:43.709Z,3.40
2018-02-26T18:18:12.461Z,3.10
2018-02-26T18:20:41.236Z,5.53
2018-02-26T18:23:10.048Z,3.30
2018-02-26T18:25:37.869Z,3.27
2018-02-26T18:28:05.762Z,3.20
2018-02-26T19:00:06.540Z,10.47
2018-02-26T19:02:34.230Z,7.40
2018-02-26T19:05:01.963Z,4.40
2018-02-26T19:07:30.026Z,3.57
2018-02-26T19:09:57.634Z,3.50
2018-02-26T19:12:25.650Z,3.07
2018-02-26T19:14:53.335Z,3.20
2018-02-26T19:17:20.926Z,3.37
2018-02-26T19:19:48.978Z,3.37
2018-02-26T19:22:17.584Z,4.30
2018-02-26T19:24:45.386Z,3.00
2018-02-26T19:27:13.256Z,4.17
2018-02-26T19:29:40.886Z,3.20
2018-02-26T19:32:09.055Z,3.60
2018-02-26T19:34:39.765Z,3.30
2018-02-26T19:37:08.019Z,3.20
2018-02-26T19:39:37.746Z,5.70
2018-02-26T19:42:06.517Z,3.40
2018-02-26T19:44:34.205Z,3.40
2018-02-26T19:47:02.255Z,3.00
2018-02-26T19:49:30.285Z,2.90
2018-02-26T19:51:58.708Z,3.00
2018-02-26T19:54:26.362Z,2.93
2018-02-26T19:56:54.025Z,2.77
2018-02-26T19:59:22.805Z,9.90
2018-02-26T20:01:51.558Z,15.73
2018-02-26T20:04:20.007Z,5.53
2018-02-26T20:06:47.636Z,3.20
2018-02-26T20:09:15.308Z,2.77
2018-02-26T20:11:42.954Z,4.53
2018-02-26T20:14:12.195Z,3.80
2018-02-26T20:16:39.814Z,2.63
2018-02-26T20:19:08.662Z,3.00
2018-02-26T20:21:36.421Z,3.00
2018-02-26T20:24:04.161Z,2.93
2018-02-26T20:26:32.065Z,2.83
2018-02-26T20:28:59.738Z,2.83
2018-02-26T20:31:27.390Z,2.97
2018-02-26T20:33:55.046Z,3.23
2018-02-26T20:36:22.701Z,3.70
2018-02-26T20:38:50.384Z,3.20
2018-02-26T20:41:19.063Z,2.90
2018-02-26T20:43:48.945Z,3.30
2018-02-26T20:46:17.755Z,3.20
2018-02-26T20:48:45.847Z,4.23
2018-02-26T20:51:14.039Z,6.17
2018-02-26T20:53:42.521Z,3.10
2018-02-26T20:56:10.733Z,3.30
2018-02-26T20:58:38.411Z,2.97
2018-02-26T21:01:06.088Z,3.60
2018-02-26T21:03:33.759Z,3.23
2018-02-26T21:06:01.726Z,3.23
2018-02-26T21:08:29.382Z,3.40
2018-02-26T21:10:57.035Z,3.27
2018-02-26T21:13:24.708Z,3.30
2018-02-26T21:15:52.752Z,3.30
2018-02-26T21:18:20.413Z,3.00
2018-02-26T21:20:48.969Z,3.00
2018-02-26T21:23:17.183Z,3.80
2018-02-26T21:25:45.681Z,3.50
2018-02-26T21:28:14.399Z,3.53
2018-02-26T21:30:42.071Z,3.20
2018-02-26T21:33:09.753Z,3.50
2018-02-26T21:35:37.739Z,3.40
2018-02-26T21:38:05.415Z,3.37
2018-02-26T21:40:34.713Z,3.40
2018-02-26T21:43:02.705Z,3.33
2018-02-26T21:45:31.849Z,3.30
2018-02-26T21:48:00.262Z,3.30
2018-02-26T21:50:27.913Z,3.20
2018-02-26T21:52:56.445Z,3.00
2018-02-26T21:55:24.094Z,3.47
2018-02-26T21:57:51.759Z,3.30
2018-02-26T22:00:19.437Z,2.80
2018-02-26T22:02:47.235Z,3.20
2018-02-26T22:05:14.887Z,3.23
2018-02-26T22:07:42.881Z,2.93
2018-02-26T22:10:10.548Z,3.00
2018-02-26T22:12:38.205Z,2.77
2018-02-26T22:15:07.887Z,3.23
2018-02-26T22:17:35.549Z,2.97
2018-02-26T22:20:03.330Z,2.67
2018-02-26T22:22:31.769Z,3.03
2018-02-26T22:24:59.511Z,3.40
2018-02-26T22:27:27.130Z,2.80
2018-02-26T22:29:56.999Z,2.93
2018-02-26T22:32:24.949Z,3.00
2018-02-26T22:34:52.519Z,2.60
2018-02-26T22:37:20.435Z,2.83
2018-02-26T22:39:48.269Z,2.70
2018-02-26T22:42:16.082Z,2.77
2018-02-26T22:44:45.683Z,2.97
2018-02-26T22:47:13.446Z,2.93
2018-02-26T22:49:41.090Z,2.80
2018-02-26T22:52:08.812Z,2.50
2018-02-26T22:54:36.440Z,2.93
2018-02-26T22:57:04.932Z,2.80
2018-02-26T22:59:32.517Z,2.83
2018-02-26T23:02:00.126Z,2.70
2018-02-26T23:04:27.833Z,2.83
2018-02-26T23:06:55.502Z,3.40
2018-02-26T23:09:24.035Z,2.97
2018-02-26T23:11:51.629Z,2.73
2018-02-26T23:14:20.065Z,3.27
2018-02-26T23:16:47.736Z,3.30
2018-02-26T23:19:15.401Z,2.83
2018-02-26T23:21:43.062Z,3.03
2018-02-26T23:24:10.701Z,3.13
2018-02-26T23:26:38.377Z,2.87
2018-02-26T23:29:06.041Z,2.60
2018-02-26T23:31:33.688Z,3.33
2018-02-26T23:34:01.359Z,3.07
2018-02-26T23:36:30.206Z,3.30
2018-02-26T23:38:58.626Z,2.73
2018-02-26T23:41:26.255Z,3.00
2018-02-26T23:43:53.942Z,2.90
2018-02-26T23:46:21.601Z,2.97
2018-02-26T23:48:49.241Z,2.70
2018-02-26T23:51:16.861Z,2.80
2018-02-26T23:53:44.510Z,2.73
2018-02-26T23:56:12.179Z,2.80
2018-02-26T23:58:39.853Z,2.63
